Terminal Aerodrome Forecast
Issued by NWS Paducah, KY

Home | Current Version | Previous Version | Text Only | Print | Product List | Glossary On
Versions: 1 2 3 4 5 6 7 8 9 10 11 12 13 14 15
602
FTUS43 KPAH 221120
TAFEVV
TAF
KEVV 221120Z 2212/2312 15007KT P6SM VCSH SCT050 BKN120
      WS020/18040KT
     FM221500 17014G19KT P6SM -SHRA VCTS BKN050CB BKN150
     FM222000 20010KT P6SM -SHRA SCT025 BKN040
     FM230000 30008KT 5SM -SHRA BR OVC020=

USA.gov is the U.S. government's official web portal to all federal, state and local government web resources and services.